sensor_id;sensor_type;location;lat;lon;timestamp;pressure;altitude;pressure_sealevel;temperature;humidity
6514;BME280;3290;47.716;9.070;2023-03-03T00:01:04;97126.59;;;5.03;96.21
6514;BME280;3290;47.716;9.070;2023-03-03T00:03:29;97116.78;;;5.13;95.49
6514;BME280;3290;47.716;9.070;2023-03-03T00:05:55;97118.28;;;5.08;95.60
6514;BME280;3290;47.716;9.070;2023-03-03T00:08:21;97118.22;;;4.93;96.11
6514;BME280;3290;47.716;9.070;2023-03-03T00:10:47;97122.91;;;4.98;96.23
6514;BME280;3290;47.716;9.070;2023-03-03T00:13:19;97116.91;;;4.97;95.79
6514;BME280;3290;47.716;9.070;2023-03-03T00:15:45;97112.81;;;5.03;95.62
6514;BME280;3290;47.716;9.070;2023-03-03T00:18:36;97126.56;;;4.89;96.03
6514;BME280;3290;47.716;9.070;2023-03-03T00:21:34;97108.28;;;4.82;96.59
6514;BME280;3290;47.716;9.070;2023-03-03T00:26:56;97111.47;;;5.07;95.11
6514;BME280;3290;47.716;9.070;2023-03-03T00:29:45;97121.28;;;4.97;95.29
6514;BME280;3290;47.716;9.070;2023-03-03T00:34:38;97133.09;;;4.85;96.15
6514;BME280;3290;47.716;9.070;2023-03-03T00:39:44;97125.88;;;4.73;96.87
6514;BME280;3290;47.716;9.070;2023-03-03T00:42:14;97125.34;;;4.77;97.19
6514;BME280;3290;47.716;9.070;2023-03-03T00:47:38;97130.81;;;4.82;96.54
6514;BME280;3290;47.716;9.070;2023-03-03T00:52:39;97127.47;;;4.96;96.08
6514;BME280;3290;47.716;9.070;2023-03-03T00:55:06;97122.97;;;4.90;96.12
6514;BME280;3290;47.716;9.070;2023-03-03T00:57:31;97128.09;;;4.98;96.13
6514;BME280;3290;47.716;9.070;2023-03-03T00:59:57;97120.38;;;4.90;96.80
6514;BME280;3290;47.716;9.070;2023-03-03T01:02:22;97120.09;;;4.85;96.28
6514;BME280;3290;47.716;9.070;2023-03-03T01:04:50;97122.13;;;4.75;97.58
6514;BME280;3290;47.716;9.070;2023-03-03T01:07:16;97116.47;;;4.72;97.60
6514;BME280;3290;47.716;9.070;2023-03-03T01:09:42;97118.25;;;4.71;97.62
6514;BME280;3290;47.716;9.070;2023-03-03T01:12:09;97119.94;;;4.64;98.08
6514;BME280;3290;47.716;9.070;2023-03-03T01:14:35;97116.00;;;4.68;97.89
6514;BME280;3290;47.716;9.070;2023-03-03T01:17:01;97119.19;;;4.56;98.13
6514;BME280;3290;47.716;9.070;2023-03-03T01:19:27;97120.72;;;4.42;98.88
6514;BME280;3290;47.716;9.070;2023-03-03T01:21:52;97119.00;;;4.57;98.52
6514;BME280;3290;47.716;9.070;2023-03-03T01:24:18;97111.78;;;4.67;98.30
6514;BME280;3290;47.716;9.070;2023-03-03T01:26:43;97116.31;;;4.73;97.67
6514;BME280;3290;47.716;9.070;2023-03-03T01:29:08;97110.69;;;4.62;97.45
6514;BME280;3290;47.716;9.070;2023-03-03T01:31:34;97114.13;;;4.62;98.38
6514;BME280;3290;47.716;9.070;2023-03-03T01:34:00;97105.63;;;4.68;97.69
6514;BME280;3290;47.716;9.070;2023-03-03T01:36:27;97116.59;;;4.56;98.38
6514;BME280;3290;47.716;9.070;2023-03-03T01:38:53;97109.91;;;4.61;97.75
6514;BME280;3290;47.716;9.070;2023-03-03T01:41:18;97108.31;;;4.60;98.24
6514;BME280;3290;47.716;9.070;2023-03-03T01:43:47;97119.47;;;4.61;97.82
6514;BME280;3290;47.716;9.070;2023-03-03T01:49:15;97120.16;;;4.55;98.58
6514;BME280;3290;47.716;9.070;2023-03-03T01:51:57;97110.81;;;4.46;99.14
6514;BME280;3290;47.716;9.070;2023-03-03T01:54:29;97115.78;;;4.55;98.38
6514;BME280;3290;47.716;9.070;2023-03-03T01:57:00;97112.09;;;4.50;98.84
6514;BME280;3290;47.716;9.070;2023-03-03T01:59:31;97119.78;;;4.36;99.97
6514;BME280;3290;47.716;9.070;2023-03-03T02:01:58;97109.25;;;4.59;99.35
6514;BME280;3290;47.716;9.070;2023-03-03T02:04:25;97109.84;;;4.47;99.09
6514;BME280;3290;47.716;9.070;2023-03-03T02:06:57;97111.16;;;4.43;98.92
6514;BME280;3290;47.716;9.070;2023-03-03T02:12:00;97107.25;;;4.47;99.27
6514;BME280;3290;47.716;9.070;2023-03-03T02:14:27;97107.09;;;4.48;99.79
6514;BME280;3290;47.716;9.070;2023-03-03T02:16:53;97104.03;;;4.45;99.67
6514;BME280;3290;47.716;9.070;2023-03-03T02:19:38;97107.53;;;4.52;99.14
6514;BME280;3290;47.716;9.070;2023-03-03T02:22:07;97100.97;;;4.64;98.76
6514;BME280;3290;47.716;9.070;2023-03-03T02:24:40;97100.56;;;4.75;98.37
6514;BME280;3290;47.716;9.070;2023-03-03T02:27:07;97104.47;;;4.71;97.98
6514;BME280;3290;47.716;9.070;2023-03-03T02:29:32;97104.94;;;4.52;98.72
6514;BME280;3290;47.716;9.070;2023-03-03T02:31:58;97112.28;;;4.48;98.84
6514;BME280;3290;47.716;9.070;2023-03-03T02:34:23;97102.84;;;4.47;99.13
6514;BME280;3290;47.716;9.070;2023-03-03T02:36:48;97103.22;;;4.44;99.68
6514;BME280;3290;47.716;9.070;2023-03-03T02:39:24;97101.47;;;4.37;100.00
6514;BME280;3290;47.716;9.070;2023-03-03T02:41:58;97104.53;;;4.40;100.00
6514;BME280;3290;47.716;9.070;2023-03-03T02:44:28;97108.78;;;4.34;100.00
6514;BME280;3290;47.716;9.070;2023-03-03T02:46:55;97097.75;;;4.39;100.00
6514;BME280;3290;47.716;9.070;2023-03-03T02:49:23;97097.44;;;4.35;100.00
6514;BME280;3290;47.716;9.070;2023-03-03T02:51:49;97102.22;;;4.45;100.00
6514;BME280;3290;47.716;9.070;2023-03-03T02:54:19;97103.78;;;4.54;99.35
6514;BME280;3290;47.716;9.070;2023-03-03T02:56:45;97097.94;;;4.60;99.25
6514;BME280;3290;47.716;9.070;2023-03-03T02:59:11;97094.34;;;4.61;99.24
6514;BME280;3290;47.716;9.070;2023-03-03T03:01:37;97104.72;;;4.61;99.11
6514;BME280;3290;47.716;9.070;2023-03-03T03:04:15;97097.69;;;4.70;98.62
6514;BME280;3290;47.716;9.070;2023-03-03T03:06:41;97099.28;;;4.71;98.45
6514;BME280;3290;47.716;9.070;2023-03-03T03:09:07;97095.00;;;4.77;98.56
6514;BME280;3290;47.716;9.070;2023-03-03T03:11:34;97096.16;;;4.75;98.59
6514;BME280;3290;47.716;9.070;2023-03-03T03:14:03;97093.06;;;4.79;97.59
6514;BME280;3290;47.716;9.070;2023-03-03T03:16:29;97089.91;;;4.70;98.29
6514;BME280;3290;47.716;9.070;2023-03-03T03:18:56;97090.78;;;4.62;99.37
6514;BME280;3290;47.716;9.070;2023-03-03T03:21:21;97084.88;;;4.68;98.42
6514;BME280;3290;47.716;9.070;2023-03-03T03:23:47;97084.72;;;4.70;98.86
6514;BME280;3290;47.716;9.070;2023-03-03T03:26:12;97069.47;;;4.89;98.09
6514;BME280;3290;47.716;9.070;2023-03-03T03:28:38;97082.75;;;5.08;96.96
6514;BME280;3290;47.716;9.070;2023-03-03T03:31:04;97085.66;;;4.91;96.61
6514;BME280;3290;47.716;9.070;2023-03-03T03:33:30;97081.31;;;4.69;98.39
6514;BME280;3290;47.716;9.070;2023-03-03T03:35:56;97077.97;;;4.61;99.04
6514;BME280;3290;47.716;9.070;2023-03-03T03:38:22;97083.63;;;4.64;98.70
6514;BME280;3290;47.716;9.070;2023-03-03T03:40:47;97086.84;;;4.66;98.93
6514;BME280;3290;47.716;9.070;2023-03-03T03:43:13;97091.69;;;4.69;98.83
6514;BME280;3290;47.716;9.070;2023-03-03T03:45:40;97095.50;;;4.59;98.97
6514;BME280;3290;47.716;9.070;2023-03-03T03:48:06;97087.53;;;4.60;99.35
6514;BME280;3290;47.716;9.070;2023-03-03T03:50:31;97091.03;;;4.67;98.76
6514;BME280;3290;47.716;9.070;2023-03-03T03:52:56;97085.53;;;4.84;98.05
6514;BME280;3290;47.716;9.070;2023-03-03T03:55:22;97090.66;;;4.78;97.97
6514;BME280;3290;47.716;9.070;2023-03-03T03:57:47;97088.22;;;4.77;98.42
6514;BME280;3290;47.716;9.070;2023-03-03T04:00:13;97096.69;;;4.71;98.83
6514;BME280;3290;47.716;9.070;2023-03-03T04:02:38;97093.94;;;4.86;97.70
6514;BME280;3290;47.716;9.070;2023-03-03T04:05:04;97093.28;;;4.70;98.50
6514;BME280;3290;47.716;9.070;2023-03-03T04:07:30;97086.50;;;4.69;98.61
6514;BME280;3290;47.716;9.070;2023-03-03T04:09:55;97083.03;;;4.77;98.40
6514;BME280;3290;47.716;9.070;2023-03-03T04:12:20;97090.78;;;4.62;98.97
6514;BME280;3290;47.716;9.070;2023-03-03T04:14:46;97089.72;;;4.71;98.96
6514;BME280;3290;47.716;9.070;2023-03-03T04:17:18;97095.00;;;4.77;98.67
6514;BME280;3290;47.716;9.070;2023-03-03T04:19:44;97083.63;;;4.64;98.47
6514;BME280;3290;47.716;9.070;2023-03-03T04:22:10;97089.47;;;4.58;99.33
6514;BME280;3290;47.716;9.070;2023-03-03T04:24:36;97086.50;;;4.47;100.00
6514;BME280;3290;47.716;9.070;2023-03-03T04:27:02;97093.97;;;4.42;100.00
6514;BME280;3290;47.716;9.070;2023-03-03T04:29:28;97094.78;;;4.65;99.71
6514;BME280;3290;47.716;9.070;2023-03-03T04:31:53;97093.28;;;4.70;99.04
6514;BME280;3290;47.716;9.070;2023-03-03T04:34:19;97092.53;;;4.84;98.03
6514;BME280;3290;47.716;9.070;2023-03-03T04:36:44;97093.28;;;4.70;98.67
6514;BME280;3290;47.716;9.070;2023-03-03T04:39:09;97091.81;;;4.53;99.30
6514;BME280;3290;47.716;9.070;2023-03-03T04:41:35;97085.78;;;4.75;98.20
6514;BME280;3290;47.716;9.070;2023-03-03T04:44:01;97088.81;;;4.64;98.60
6514;BME280;3290;47.716;9.070;2023-03-03T04:46:26;97091.97;;;4.52;99.61
6514;BME280;3290;47.716;9.070;2023-03-03T04:48:51;97092.47;;;4.47;99.17
6514;BME280;3290;47.716;9.070;2023-03-03T04:51:17;97098.47;;;4.70;98.21
6514;BME280;3290;47.716;9.070;2023-03-03T04:53:42;97096.50;;;4.72;98.29
6514;BME280;3290;47.716;9.070;2023-03-03T04:56:08;97099.50;;;4.83;98.03
6514;BME280;3290;47.716;9.070;2023-03-03T04:58:33;97097.56;;;4.63;98.95
6514;BME280;3290;47.716;9.070;2023-03-03T05:00:59;97104.41;;;4.78;98.34
6514;BME280;3290;47.716;9.070;2023-03-03T05:03:24;97102.41;;;4.66;99.15
6514;BME280;3290;47.716;9.070;2023-03-03T05:05:50;97107.75;;;4.65;98.92
6514;BME280;3290;47.716;9.070;2023-03-03T05:08:16;97109.25;;;4.81;97.93
6514;BME280;3290;47.716;9.070;2023-03-03T05:10:41;97108.84;;;4.92;97.26
6514;BME280;3290;47.716;9.070;2023-03-03T05:13:07;97109.31;;;4.96;97.11
6514;BME280;3290;47.716;9.070;2023-03-03T05:15:33;97101.25;;;5.05;96.50
6514;BME280;3290;47.716;9.070;2023-03-03T05:17:59;97099.03;;;5.02;96.60
6514;BME280;3290;47.716;9.070;2023-03-03T05:20:24;97096.69;;;5.07;96.80
6514;BME280;3290;47.716;9.070;2023-03-03T05:22:50;97103.41;;;5.16;96.28
6514;BME280;3290;47.716;9.070;2023-03-03T05:25:16;97092.94;;;5.10;96.23
6514;BME280;3290;47.716;9.070;2023-03-03T05:27:41;97100.91;;;5.08;97.09
6514;BME280;3290;47.716;9.070;2023-03-03T05:30:10;97095.97;;;4.99;97.93
6514;BME280;3290;47.716;9.070;2023-03-03T05:32:36;97101.84;;;4.93;97.45
6514;BME280;3290;47.716;9.070;2023-03-03T05:35:02;97108.03;;;4.92;97.77
6514;BME280;3290;47.716;9.070;2023-03-03T05:37:28;97112.78;;;4.88;98.24
6514;BME280;3290;47.716;9.070;2023-03-03T05:39:53;97118.03;;;4.80;98.15
6514;BME280;3290;47.716;9.070;2023-03-03T05:42:18;97123.03;;;4.82;98.18
6514;BME280;3290;47.716;9.070;2023-03-03T05:44:44;97124.59;;;4.91;97.99
6514;BME280;3290;47.716;9.070;2023-03-03T05:47:09;97125.63;;;5.04;97.72
6514;BME280;3290;47.716;9.070;2023-03-03T05:49:35;97130.34;;;5.01;97.76
6514;BME280;3290;47.716;9.070;2023-03-03T05:52:00;97129.31;;;5.10;96.89
6514;BME280;3290;47.716;9.070;2023-03-03T05:54:26;97114.63;;;5.17;97.21
6514;BME280;3290;47.716;9.070;2023-03-03T05:56:51;97123.56;;;5.14;96.38
6514;BME280;3290;47.716;9.070;2023-03-03T05:59:17;97122.97;;;5.26;95.70
6514;BME280;3290;47.716;9.070;2023-03-03T06:01:43;97122.06;;;5.19;96.21
6514;BME280;3290;47.716;9.070;2023-03-03T06:04:08;97123.34;;;5.23;96.15
6514;BME280;3290;47.716;9.070;2023-03-03T06:06:33;97121.72;;;5.51;97.17
6514;BME280;3290;47.716;9.070;2023-03-03T06:08:59;97120.66;;;5.31;96.31
6514;BME280;3290;47.716;9.070;2023-03-03T06:11:24;97127.91;;;5.36;96.21
6514;BME280;3290;47.716;9.070;2023-03-03T06:13:50;97127.63;;;5.17;95.91
6514;BME280;3290;47.716;9.070;2023-03-03T06:16:15;97124.31;;;5.22;96.17
6514;BME280;3290;47.716;9.070;2023-03-03T06:18:40;97140.81;;;5.07;96.95
6514;BME280;3290;47.716;9.070;2023-03-03T06:21:06;97142.19;;;5.17;96.69
6514;BME280;3290;47.716;9.070;2023-03-03T06:23:31;97149.19;;;5.17;95.58
6514;BME280;3290;47.716;9.070;2023-03-03T06:25:57;97139.97;;;5.15;96.40
6514;BME280;3290;47.716;9.070;2023-03-03T06:28:22;97147.06;;;5.20;96.12
6514;BME280;3290;47.716;9.070;2023-03-03T06:30:52;97153.88;;;5.21;96.78
6514;BME280;3290;47.716;9.070;2023-03-03T06:33:17;97148.78;;;5.42;97.31
6514;BME280;3290;47.716;9.070;2023-03-03T06:35:43;97151.31;;;5.14;97.56
6514;BME280;3290;47.716;9.070;2023-03-03T06:38:08;97157.59;;;5.56;100.00
6514;BME280;3290;47.716;9.070;2023-03-03T06:40:33;97163.69;;;5.48;97.75
6514;BME280;3290;47.716;9.070;2023-03-03T06:42:59;97160.63;;;5.59;96.73
6514;BME280;3290;47.716;9.070;2023-03-03T06:45:26;97161.66;;;5.72;94.57
6514;BME280;3290;47.716;9.070;2023-03-03T06:47:51;97166.00;;;5.72;93.80
6514;BME280;3290;47.716;9.070;2023-03-03T06:50:19;97168.44;;;5.59;94.83
6514;BME280;3290;47.716;9.070;2023-03-03T06:52:45;97169.03;;;5.47;94.30
6514;BME280;3290;47.716;9.070;2023-03-03T06:55:14;97169.06;;;5.61;94.19
6514;BME280;3290;47.716;9.070;2023-03-03T06:57:42;97176.22;;;5.59;94.84
6514;BME280;3290;47.716;9.070;2023-03-03T07:02:39;97182.50;;;5.50;94.23
6514;BME280;3290;47.716;9.070;2023-03-03T07:05:10;97175.88;;;5.62;94.40
6514;BME280;3290;47.716;9.070;2023-03-03T07:07:38;97189.41;;;5.72;93.15
6514;BME280;3290;47.716;9.070;2023-03-03T07:10:10;97186.28;;;5.62;94.31
6514;BME280;3290;47.716;9.070;2023-03-03T07:12:37;97184.59;;;5.69;93.49
6514;BME280;3290;47.716;9.070;2023-03-03T07:15:29;97189.69;;;5.62;94.49
6514;BME280;3290;47.716;9.070;2023-03-03T07:17:58;97192.59;;;5.82;93.58
6514;BME280;3290;47.716;9.070;2023-03-03T07:22:53;97192.78;;;5.80;93.74
6514;BME280;3290;47.716;9.070;2023-03-03T07:25:39;97190.91;;;5.74;93.59
6514;BME280;3290;47.716;9.070;2023-03-03T07:30:44;97195.28;;;6.02;91.26
6514;BME280;3290;47.716;9.070;2023-03-03T07:35:53;97204.78;;;5.96;92.20
6514;BME280;3290;47.716;9.070;2023-03-03T07:38:33;97206.31;;;6.04;91.88
6514;BME280;3290;47.716;9.070;2023-03-03T07:41:04;97202.38;;;5.94;91.04
6514;BME280;3290;47.716;9.070;2023-03-03T07:43:39;97193.56;;;6.24;90.57
6514;BME280;3290;47.716;9.070;2023-03-03T07:48:37;97197.97;;;6.09;90.63
6514;BME280;3290;47.716;9.070;2023-03-03T07:51:12;97196.59;;;6.41;88.21
6514;BME280;3290;47.716;9.070;2023-03-03T07:53:39;97203.88;;;6.32;88.41
6514;BME280;3290;47.716;9.070;2023-03-03T07:56:37;97213.22;;;6.26;88.89
6514;BME280;3290;47.716;9.070;2023-03-03T07:59:17;97222.47;;;6.29;90.15
6514;BME280;3290;47.716;9.070;2023-03-03T08:01:45;97222.63;;;6.27;90.12
6514;BME280;3290;47.716;9.070;2023-03-03T08:04:23;97217.16;;;6.37;89.38
6514;BME280;3290;47.716;9.070;2023-03-03T08:11:52;97224.34;;;6.20;89.38
6514;BME280;3290;47.716;9.070;2023-03-03T08:14:26;97222.53;;;6.35;89.95
6514;BME280;3290;47.716;9.070;2023-03-03T08:16:52;97228.09;;;6.32;89.66
6514;BME280;3290;47.716;9.070;2023-03-03T08:19:19;97225.97;;;6.21;89.82
6514;BME280;3290;47.716;9.070;2023-03-03T08:21:45;97217.44;;;6.13;90.00
6514;BME280;3290;47.716;9.070;2023-03-03T08:24:10;97224.63;;;6.25;89.88
6514;BME280;3290;47.716;9.070;2023-03-03T08:26:36;97221.09;;;6.47;89.30
6514;BME280;3290;47.716;9.070;2023-03-03T08:29:02;97222.09;;;6.17;89.21
6514;BME280;3290;47.716;9.070;2023-03-03T08:31:27;97226.22;;;5.97;89.00
6514;BME280;3290;47.716;9.070;2023-03-03T08:33:53;97228.81;;;6.26;88.31
6514;BME280;3290;47.716;9.070;2023-03-03T08:36:19;97231.78;;;6.38;88.94
6514;BME280;3290;47.716;9.070;2023-03-03T08:38:44;97225.03;;;6.43;87.92
6514;BME280;3290;47.716;9.070;2023-03-03T08:41:10;97226.41;;;6.39;87.92
6514;BME280;3290;47.716;9.070;2023-03-03T08:43:36;97229.25;;;6.58;86.22
6514;BME280;3290;47.716;9.070;2023-03-03T08:46:02;97232.13;;;6.49;86.29
6514;BME280;3290;47.716;9.070;2023-03-03T08:48:30;97228.59;;;6.71;84.53
6514;BME280;3290;47.716;9.070;2023-03-03T08:50:55;97226.06;;;6.63;85.04
6514;BME280;3290;47.716;9.070;2023-03-03T08:53:21;97230.19;;;6.72;85.26
6514;BME280;3290;47.716;9.070;2023-03-03T08:55:47;97233.34;;;6.67;85.39
6514;BME280;3290;47.716;9.070;2023-03-03T08:58:13;97226.78;;;6.71;84.65
6514;BME280;3290;47.716;9.070;2023-03-03T09:00:39;97233.13;;;6.48;87.53
6514;BME280;3290;47.716;9.070;2023-03-03T09:03:05;97231.16;;;6.85;85.44
6514;BME280;3290;47.716;9.070;2023-03-03T09:05:32;97236.69;;;6.47;85.08
6514;BME280;3290;47.716;9.070;2023-03-03T09:07:58;97234.28;;;6.60;85.68
6514;BME280;3290;47.716;9.070;2023-03-03T09:10:26;97235.75;;;6.83;85.13
6514;BME280;3290;47.716;9.070;2023-03-03T09:12:54;97242.16;;;6.52;84.10
6514;BME280;3290;47.716;9.070;2023-03-03T09:15:28;97236.91;;;6.80;83.88
6514;BME280;3290;47.716;9.070;2023-03-03T09:17:58;97239.38;;;6.68;83.42
6514;BME280;3290;47.716;9.070;2023-03-03T09:25:53;97244.25;;;7.12;82.19
6514;BME280;3290;47.716;9.070;2023-03-03T09:28:28;97251.84;;;7.07;82.51
6514;BME280;3290;47.716;9.070;2023-03-03T09:30:59;97244.22;;;7.47;82.68
6514;BME280;3290;47.716;9.070;2023-03-03T09:33:46;97247.44;;;7.49;80.31
6514;BME280;3290;47.716;9.070;2023-03-03T09:38:48;97249.41;;;7.68;78.35
6514;BME280;3290;47.716;9.070;2023-03-03T09:53:09;97250.00;;;8.18;75.37
6514;BME280;3290;47.716;9.070;2023-03-03T09:56:01;97245.25;;;8.00;77.25
6514;BME280;3290;47.716;9.070;2023-03-03T10:06:36;97251.66;;;8.65;74.60
6514;BME280;3290;47.716;9.070;2023-03-03T10:10:14;97251.44;;;8.60;74.59
6514;BME280;3290;47.716;9.070;2023-03-03T10:15:20;97249.66;;;9.14;72.29
6514;BME280;3290;47.716;9.070;2023-03-03T10:17:51;97252.81;;;8.96;72.55
6514;BME280;3290;47.716;9.070;2023-03-03T10:20:34;97252.41;;;8.93;72.11
6514;BME280;3290;47.716;9.070;2023-03-03T10:28:23;97242.47;;;9.67;69.25
6514;BME280;3290;47.716;9.070;2023-03-03T10:41:58;97248.50;;;8.70;70.63
6514;BME280;3290;47.716;9.070;2023-03-03T10:44:41;97250.88;;;8.71;71.48
6514;BME280;3290;47.716;9.070;2023-03-03T10:52:45;97255.16;;;8.85;71.24
6514;BME280;3290;47.716;9.070;2023-03-03T10:58:03;97239.78;;;9.16;70.42
6514;BME280;3290;47.716;9.070;2023-03-03T11:00:54;97242.41;;;9.22;70.43
6514;BME280;3290;47.716;9.070;2023-03-03T11:06:00;97239.59;;;9.23;69.32
6514;BME280;3290;47.716;9.070;2023-03-03T11:08:31;97244.28;;;8.75;70.92
6514;BME280;3290;47.716;9.070;2023-03-03T11:14:05;97232.38;;;9.32;70.13
6514;BME280;3290;47.716;9.070;2023-03-03T11:16:44;97233.44;;;9.50;69.72
6514;BME280;3290;47.716;9.070;2023-03-03T11:25:05;97233.44;;;9.50;69.01
6514;BME280;3290;47.716;9.070;2023-03-03T11:27:23;97230.44;;;10.04;65.72
6514;BME280;3290;47.716;9.070;2023-03-03T11:40:25;97213.56;;;11.37;62.83
6514;BME280;3290;47.716;9.070;2023-03-03T11:43:04;97212.25;;;11.83;59.12
6514;BME280;3290;47.716;9.070;2023-03-03T11:45:56;97207.69;;;11.42;59.01
6514;BME280;3290;47.716;9.070;2023-03-03T11:48:35;97213.13;;;11.47;61.10
6514;BME280;3290;47.716;9.070;2023-03-03T11:56:20;97199.94;;;11.53;58.81
6514;BME280;3290;47.716;9.070;2023-03-03T12:04:12;97189.78;;;11.02;61.27
6514;BME280;3290;47.716;9.070;2023-03-03T12:12:22;97187.44;;;10.38;63.67
6514;BME280;3290;47.716;9.070;2023-03-03T12:15:32;97188.88;;;10.34;63.58
6514;BME280;3290;47.716;9.070;2023-03-03T12:20:55;97182.38;;;10.49;64.93
6514;BME280;3290;47.716;9.070;2023-03-03T12:26:16;97184.72;;;9.75;67.86
6514;BME280;3290;47.716;9.070;2023-03-03T12:34:43;97173.28;;;10.58;64.40
6514;BME280;3290;47.716;9.070;2023-03-03T12:37:22;97184.47;;;10.28;65.38
6514;BME280;3290;47.716;9.070;2023-03-03T12:40:10;97180.06;;;10.02;65.48
6514;BME280;3290;47.716;9.070;2023-03-03T12:43:22;97188.28;;;10.32;64.86
6514;BME280;3290;47.716;9.070;2023-03-03T12:48:20;97182.97;;;10.51;65.21
6514;BME280;3290;47.716;9.070;2023-03-03T12:59:03;97174.66;;;9.98;65.47
6514;BME280;3290;47.716;9.070;2023-03-03T13:04:33;97177.69;;;9.37;68.41
6514;BME280;3290;47.716;9.070;2023-03-03T13:07:16;97169.22;;;9.41;68.63
6514;BME280;3290;47.716;9.070;2023-03-03T13:10:11;97168.25;;;9.49;67.74
6514;BME280;3290;47.716;9.070;2023-03-03T13:13:03;97163.56;;;9.76;68.30
6514;BME280;3290;47.716;9.070;2023-03-03T13:15:53;97166.00;;;9.65;68.64
6514;BME280;3290;47.716;9.070;2023-03-03T13:21:09;97161.78;;;9.51;68.85
6514;BME280;3290;47.716;9.070;2023-03-03T13:26:31;97167.38;;;10.12;68.71
6514;BME280;3290;47.716;9.070;2023-03-03T13:31:38;97160.31;;;10.13;67.17
6514;BME280;3290;47.716;9.070;2023-03-03T13:34:04;97154.69;;;10.16;66.32
6514;BME280;3290;47.716;9.070;2023-03-03T13:36:52;97165.75;;;10.24;65.37
6514;BME280;3290;47.716;9.070;2023-03-03T13:39:39;97159.25;;;10.33;65.76
6514;BME280;3290;47.716;9.070;2023-03-03T13:44:58;97159.00;;;10.41;64.51
6514;BME280;3290;47.716;9.070;2023-03-03T13:47:47;97156.00;;;10.87;63.92
6514;BME280;3290;47.716;9.070;2023-03-03T13:50:30;97155.88;;;10.70;64.81
6514;BME280;3290;47.716;9.070;2023-03-03T14:01:29;97155.88;;;10.70;63.85
6514;BME280;3290;47.716;9.070;2023-03-03T14:06:34;97149.28;;;10.61;64.65
6514;BME280;3290;47.716;9.070;2023-03-03T14:11:53;97140.78;;;10.65;65.08
6514;BME280;3290;47.716;9.070;2023-03-03T14:17:15;97137.75;;;10.18;66.62
6514;BME280;3290;47.716;9.070;2023-03-03T14:19:51;97126.88;;;10.21;66.81
6514;BME280;3290;47.716;9.070;2023-03-03T14:25:12;97125.63;;;10.30;67.37
6514;BME280;3290;47.716;9.070;2023-03-03T14:27:39;97130.50;;;10.20;66.43
6514;BME280;3290;47.716;9.070;2023-03-03T14:38:20;97121.66;;;10.15;68.54
6514;BME280;3290;47.716;9.070;2023-03-03T14:40:46;97120.19;;;10.69;66.61
6514;BME280;3290;47.716;9.070;2023-03-03T14:45:46;97117.16;;;10.35;67.82
6514;BME280;3290;47.716;9.070;2023-03-03T14:48:18;97118.16;;;10.34;69.14
6514;BME280;3290;47.716;9.070;2023-03-03T14:50:55;97125.34;;;10.51;68.40
6514;BME280;3290;47.716;9.070;2023-03-03T14:53:36;97128.81;;;10.45;67.75
6514;BME280;3290;47.716;9.070;2023-03-03T14:56:19;97113.38;;;10.98;66.11
6514;BME280;3290;47.716;9.070;2023-03-03T14:58:47;97122.50;;;10.89;65.55
6514;BME280;3290;47.716;9.070;2023-03-03T15:01:20;97124.00;;;11.10;64.38
6514;BME280;3290;47.716;9.070;2023-03-03T15:06:53;97112.41;;;10.56;68.07
6514;BME280;3290;47.716;9.070;2023-03-03T15:09:36;97123.66;;;10.13;70.23
6514;BME280;3290;47.716;9.070;2023-03-03T15:20:03;97106.78;;;10.09;70.79
6514;BME280;3290;47.716;9.070;2023-03-03T15:26:08;97112.91;;;9.64;72.86
6514;BME280;3290;47.716;9.070;2023-03-03T15:34:28;97111.84;;;9.85;72.39
6514;BME280;3290;47.716;9.070;2023-03-03T15:40:14;97113.66;;;9.84;72.10
6514;BME280;3290;47.716;9.070;2023-03-03T15:45:20;97123.94;;;9.79;71.92
6514;BME280;3290;47.716;9.070;2023-03-03T15:53:56;97110.91;;;9.47;71.90
6514;BME280;3290;47.716;9.070;2023-03-03T15:56:43;97115.88;;;9.74;71.47
6514;BME280;3290;47.716;9.070;2023-03-03T15:59:53;97119.72;;;9.78;70.66
6514;BME280;3290;47.716;9.070;2023-03-03T16:02:30;97125.75;;;9.92;71.84
6514;BME280;3290;47.716;9.070;2023-03-03T16:05:27;97113.84;;;9.96;71.05
6514;BME280;3290;47.716;9.070;2023-03-03T16:07:57;97114.41;;;10.17;69.56
6514;BME280;3290;47.716;9.070;2023-03-03T16:31:57;97138.25;;;9.77;71.72
6514;BME280;3290;47.716;9.070;2023-03-03T16:34:36;97132.38;;;10.00;70.54
6514;BME280;3290;47.716;9.070;2023-03-03T16:39:59;97142.69;;;9.51;73.09
6514;BME280;3290;47.716;9.070;2023-03-03T16:42:30;97145.28;;;9.70;72.45
6514;BME280;3290;47.716;9.070;2023-03-03T16:45:21;97146.09;;;9.96;71.82
6514;BME280;3290;47.716;9.070;2023-03-03T16:50:37;97151.91;;;9.92;70.93
6514;BME280;3290;47.716;9.070;2023-03-03T16:53:14;97155.72;;;9.96;71.81
6514;BME280;3290;47.716;9.070;2023-03-03T16:55:49;97157.16;;;9.92;71.82
6514;BME280;3290;47.716;9.070;2023-03-03T17:07:12;97165.16;;;10.09;71.92
6514;BME280;3290;47.716;9.070;2023-03-03T17:10:01;97172.44;;;9.95;72.10
6514;BME280;3290;47.716;9.070;2023-03-03T17:15:24;97174.84;;;9.83;72.92
6514;BME280;3290;47.716;9.070;2023-03-03T17:20:46;97178.31;;;9.64;74.23
6514;BME280;3290;47.716;9.070;2023-03-03T17:23:26;97185.75;;;9.61;74.92
6514;BME280;3290;47.716;9.070;2023-03-03T17:26:04;97199.59;;;9.55;75.06
6514;BME280;3290;47.716;9.070;2023-03-03T17:28:39;97194.19;;;9.63;74.60
6514;BME280;3290;47.716;9.070;2023-03-03T17:31:20;97186.53;;;9.61;74.49
6514;BME280;3290;47.716;9.070;2023-03-03T17:34:02;97201.22;;;9.43;75.92
6514;BME280;3290;47.716;9.070;2023-03-03T17:42:35;97214.19;;;8.92;79.55
6514;BME280;3290;47.716;9.070;2023-03-03T17:45:09;97216.59;;;8.87;79.97
6514;BME280;3290;47.716;9.070;2023-03-03T17:53:37;97223.81;;;8.85;78.95
6514;BME280;3290;47.716;9.070;2023-03-03T17:56:24;97223.75;;;8.59;81.32
6514;BME280;3290;47.716;9.070;2023-03-03T18:01:59;97235.63;;;8.28;84.27
6514;BME280;3290;47.716;9.070;2023-03-03T18:07:20;97234.34;;;8.18;85.19
6514;BME280;3290;47.716;9.070;2023-03-03T18:10:02;97242.75;;;8.13;85.21
6514;BME280;3290;47.716;9.070;2023-03-03T18:20:29;97247.66;;;8.02;86.50
6514;BME280;3290;47.716;9.070;2023-03-03T18:28:21;97251.00;;;7.96;86.94
6514;BME280;3290;47.716;9.070;2023-03-03T18:30:58;97249.59;;;7.94;87.23
6514;BME280;3290;47.716;9.070;2023-03-03T18:33:43;97251.06;;;8.02;87.10
6514;BME280;3290;47.716;9.070;2023-03-03T18:36:36;97251.16;;;7.88;86.98
6514;BME280;3290;47.716;9.070;2023-03-03T18:39:03;97262.75;;;7.79;88.68
6514;BME280;3290;47.716;9.070;2023-03-03T18:42:07;97259.34;;;7.58;90.50
6514;BME280;3290;47.716;9.070;2023-03-03T18:44:33;97261.38;;;7.62;90.67
6514;BME280;3290;47.716;9.070;2023-03-03T18:46:58;97262.25;;;7.69;90.05
6514;BME280;3290;47.716;9.070;2023-03-03T18:49:47;97266.25;;;7.45;90.68
6514;BME280;3290;47.716;9.070;2023-03-03T18:52:25;97275.28;;;7.49;90.27
6514;BME280;3290;47.716;9.070;2023-03-03T18:57:36;97272.38;;;7.58;90.10